Huanguelen, Argentina
Current Conditions -  °F | °C
As of 9:00 PM on Friday 21 Nov 2014 (Local Time) from SAZM Reporting Station
Overcast Overcast  
Wind Chill: 61°   Ceiling: 2500
Heat Index: 61°   Visibility: 5mi
Dew Point: 55°   Wind: 9mph
Humidity: 82%   Direction: 140°SE
Pressure: 29.97"   Gusts: NA
Location:  37.06°S, 61.85°W
Report Text: SAZM 220000Z 14008KT 8000 BKN025 OVC10016/13 Q1015
Loading
Personal Weather Stations






























Interactive Weather Map New forecast layout! Learn more

10-Day Weather Forecast

Advertisements
Track Severe Weather on mobile